sensor_id;sensor_type;location;lat;lon;timestamp;temperature;humidity
530;DHT22;251;48.704;9.210;2023-05-10T00:00:29;13.80;99.90
530;DHT22;251;48.704;9.210;2023-05-10T00:02:56;13.60;99.90
530;DHT22;251;48.704;9.210;2023-05-10T00:05:23;14.00;99.90
530;DHT22;251;48.704;9.210;2023-05-10T00:07:50;13.70;99.90
530;DHT22;251;48.704;9.210;2023-05-10T00:10:17;13.60;99.90
530;DHT22;251;48.704;9.210;2023-05-10T00:12:44;13.90;99.90
530;DHT22;251;48.704;9.210;2023-05-10T00:15:10;13.80;99.90
530;DHT22;251;48.704;9.210;2023-05-10T00:17:39;13.50;99.90
530;DHT22;251;48.704;9.210;2023-05-10T00:20:06;13.50;99.90
530;DHT22;251;48.704;9.210;2023-05-10T00:22:33;13.90;99.90
530;DHT22;251;48.704;9.210;2023-05-10T00:25:01;13.70;99.90
530;DHT22;251;48.704;9.210;2023-05-10T00:27:27;13.60;99.60
530;DHT22;251;48.704;9.210;2023-05-10T00:29:54;13.60;99.90
530;DHT22;251;48.704;9.210;2023-05-10T00:32:21;13.40;95.10
530;DHT22;251;48.704;9.210;2023-05-10T00:34:49;13.30;95.20
530;DHT22;251;48.704;9.210;2023-05-10T00:37:16;13.40;92.90
530;DHT22;251;48.704;9.210;2023-05-10T00:39:42;13.00;92.60
530;DHT22;251;48.704;9.210;2023-05-10T00:42:10;12.90;93.50
530;DHT22;251;48.704;9.210;2023-05-10T00:44:37;12.90;93.70
530;DHT22;251;48.704;9.210;2023-05-10T00:47:05;12.90;93.70
530;DHT22;251;48.704;9.210;2023-05-10T00:49:32;12.90;94.40
530;DHT22;251;48.704;9.210;2023-05-10T00:52:01;12.90;93.50
530;DHT22;251;48.704;9.210;2023-05-10T00:54:29;12.90;94.10
530;DHT22;251;48.704;9.210;2023-05-10T00:56:56;12.80;95.60
530;DHT22;251;48.704;9.210;2023-05-10T00:59:24;13.00;94.90
530;DHT22;251;48.704;9.210;2023-05-10T01:01:52;12.90;97.80
530;DHT22;251;48.704;9.210;2023-05-10T01:04:19;12.80;97.30
530;DHT22;251;48.704;9.210;2023-05-10T01:06:51;12.70;93.80
530;DHT22;251;48.704;9.210;2023-05-10T01:09:19;12.50;90.50
530;DHT22;251;48.704;9.210;2023-05-10T01:11:47;12.50;91.90
530;DHT22;251;48.704;9.210;2023-05-10T01:14:18;12.80;93.40
530;DHT22;251;48.704;9.210;2023-05-10T01:16:47;12.90;92.30
530;DHT22;251;48.704;9.210;2023-05-10T01:19:19;12.60;93.00
530;DHT22;251;48.704;9.210;2023-05-10T01:21:52;12.80;91.80
530;DHT22;251;48.704;9.210;2023-05-10T01:24:46;12.90;92.40
530;DHT22;251;48.704;9.210;2023-05-10T01:27:26;12.90;91.30
530;DHT22;251;48.704;9.210;2023-05-10T01:30:14;12.80;91.00
530;DHT22;251;48.704;9.210;2023-05-10T01:32:53;12.90;90.30
530;DHT22;251;48.704;9.210;2023-05-10T01:35:29;12.70;92.80
530;DHT22;251;48.704;9.210;2023-05-10T01:38:02;12.70;93.00
530;DHT22;251;48.704;9.210;2023-05-10T01:40:37;12.80;92.80
530;DHT22;251;48.704;9.210;2023-05-10T01:43:11;12.60;92.40
530;DHT22;251;48.704;9.210;2023-05-10T01:45:54;12.90;93.10
530;DHT22;251;48.704;9.210;2023-05-10T01:48:27;12.70;91.80
530;DHT22;251;48.704;9.210;2023-05-10T01:50:55;12.70;93.00
530;DHT22;251;48.704;9.210;2023-05-10T01:53:23;12.80;93.60
530;DHT22;251;48.704;9.210;2023-05-10T01:55:53;13.00;92.20
530;DHT22;251;48.704;9.210;2023-05-10T01:58:24;12.70;94.50
530;DHT22;251;48.704;9.210;2023-05-10T02:00:52;12.80;94.20
530;DHT22;251;48.704;9.210;2023-05-10T02:03:23;12.90;94.60
530;DHT22;251;48.704;9.210;2023-05-10T02:05:52;12.80;94.20
530;DHT22;251;48.704;9.210;2023-05-10T02:08:22;12.90;94.20
530;DHT22;251;48.704;9.210;2023-05-10T02:10:50;12.90;95.00
530;DHT22;251;48.704;9.210;2023-05-10T02:13:18;12.90;95.00
530;DHT22;251;48.704;9.210;2023-05-10T02:15:46;12.80;94.80
530;DHT22;251;48.704;9.210;2023-05-10T02:18:14;12.70;95.90
530;DHT22;251;48.704;9.210;2023-05-10T02:20:43;12.70;97.30
530;DHT22;251;48.704;9.210;2023-05-10T02:23:13;12.90;97.40
530;DHT22;251;48.704;9.210;2023-05-10T02:25:40;12.70;95.50
530;DHT22;251;48.704;9.210;2023-05-10T02:28:10;12.60;95.30
530;DHT22;251;48.704;9.210;2023-05-10T02:30:38;12.70;95.00
530;DHT22;251;48.704;9.210;2023-05-10T02:33:06;12.60;96.50
530;DHT22;251;48.704;9.210;2023-05-10T02:35:34;12.50;97.70
530;DHT22;251;48.704;9.210;2023-05-10T02:38:01;12.30;99.60
530;DHT22;251;48.704;9.210;2023-05-10T02:40:31;12.40;99.40
530;DHT22;251;48.704;9.210;2023-05-10T02:42:59;12.60;97.90
530;DHT22;251;48.704;9.210;2023-05-10T02:45:30;12.50;98.80
530;DHT22;251;48.704;9.210;2023-05-10T02:47:58;12.50;98.90
530;DHT22;251;48.704;9.210;2023-05-10T02:50:27;12.30;99.90
530;DHT22;251;48.704;9.210;2023-05-10T02:53:00;12.40;99.90
530;DHT22;251;48.704;9.210;2023-05-10T02:55:40;12.70;99.90
530;DHT22;251;48.704;9.210;2023-05-10T02:58:07;12.60;99.90
530;DHT22;251;48.704;9.210;2023-05-10T03:00:34;12.70;99.90
530;DHT22;251;48.704;9.210;2023-05-10T03:03:02;12.30;99.20
530;DHT22;251;48.704;9.210;2023-05-10T03:05:29;12.30;99.20
530;DHT22;251;48.704;9.210;2023-05-10T03:07:59;12.50;99.00
530;DHT22;251;48.704;9.210;2023-05-10T03:10:30;12.60;98.10
530;DHT22;251;48.704;9.210;2023-05-10T03:13:07;12.70;99.40
530;DHT22;251;48.704;9.210;2023-05-10T03:15:45;12.80;99.10
530;DHT22;251;48.704;9.210;2023-05-10T03:18:18;12.50;96.80
530;DHT22;251;48.704;9.210;2023-05-10T03:20:49;12.50;97.50
530;DHT22;251;48.704;9.210;2023-05-10T03:23:22;12.60;97.80
530;DHT22;251;48.704;9.210;2023-05-10T03:25:53;12.50;98.60
530;DHT22;251;48.704;9.210;2023-05-10T03:28:25;12.50;99.90
530;DHT22;251;48.704;9.210;2023-05-10T03:30:52;12.60;99.90
530;DHT22;251;48.704;9.210;2023-05-10T03:33:20;12.60;99.90
530;DHT22;251;48.704;9.210;2023-05-10T03:35:47;12.60;99.90
530;DHT22;251;48.704;9.210;2023-05-10T03:38:15;12.40;98.50
530;DHT22;251;48.704;9.210;2023-05-10T03:40:41;12.70;97.90
530;DHT22;251;48.704;9.210;2023-05-10T03:43:08;12.60;95.50
530;DHT22;251;48.704;9.210;2023-05-10T03:45:36;12.50;96.80
530;DHT22;251;48.704;9.210;2023-05-10T03:48:04;12.80;96.70
530;DHT22;251;48.704;9.210;2023-05-10T03:50:31;12.80;96.90
530;DHT22;251;48.704;9.210;2023-05-10T03:52:58;12.70;96.40
530;DHT22;251;48.704;9.210;2023-05-10T03:55:26;12.90;97.00
530;DHT22;251;48.704;9.210;2023-05-10T03:57:53;12.80;97.60
530;DHT22;251;48.704;9.210;2023-05-10T04:00:21;12.60;96.70
530;DHT22;251;48.704;9.210;2023-05-10T04:02:53;12.70;97.00
530;DHT22;251;48.704;9.210;2023-05-10T04:05:19;12.50;96.40
530;DHT22;251;48.704;9.210;2023-05-10T04:07:46;12.90;95.70
530;DHT22;251;48.704;9.210;2023-05-10T04:10:15;12.90;96.00
530;DHT22;251;48.704;9.210;2023-05-10T04:12:43;12.70;95.70
530;DHT22;251;48.704;9.210;2023-05-10T04:15:10;12.80;95.30
530;DHT22;251;48.704;9.210;2023-05-10T04:17:37;12.80;93.10
530;DHT22;251;48.704;9.210;2023-05-10T04:20:06;12.40;92.10
530;DHT22;251;48.704;9.210;2023-05-10T04:22:34;12.50;91.80
530;DHT22;251;48.704;9.210;2023-05-10T04:25:00;12.60;93.30
530;DHT22;251;48.704;9.210;2023-05-10T04:27:27;12.50;93.90
530;DHT22;251;48.704;9.210;2023-05-10T04:29:54;12.50;93.60
530;DHT22;251;48.704;9.210;2023-05-10T04:32:21;12.50;94.50
530;DHT22;251;48.704;9.210;2023-05-10T04:34:48;12.50;94.40
530;DHT22;251;48.704;9.210;2023-05-10T04:37:16;12.20;96.70
530;DHT22;251;48.704;9.210;2023-05-10T04:39:43;12.20;96.70
530;DHT22;251;48.704;9.210;2023-05-10T04:42:10;12.30;96.40
530;DHT22;251;48.704;9.210;2023-05-10T04:44:37;12.40;96.00
530;DHT22;251;48.704;9.210;2023-05-10T04:47:04;12.60;94.80
530;DHT22;251;48.704;9.210;2023-05-10T04:49:31;12.30;95.00
530;DHT22;251;48.704;9.210;2023-05-10T04:51:58;12.80;94.60
530;DHT22;251;48.704;9.210;2023-05-10T04:54:26;12.50;94.80
530;DHT22;251;48.704;9.210;2023-05-10T04:56:53;12.80;94.30
530;DHT22;251;48.704;9.210;2023-05-10T04:59:21;12.90;92.30
530;DHT22;251;48.704;9.210;2023-05-10T05:01:48;12.60;92.00
530;DHT22;251;48.704;9.210;2023-05-10T05:04:15;12.90;93.70
530;DHT22;251;48.704;9.210;2023-05-10T05:06:42;12.70;92.00
530;DHT22;251;48.704;9.210;2023-05-10T05:09:09;13.00;93.40
530;DHT22;251;48.704;9.210;2023-05-10T05:11:37;12.90;92.50
530;DHT22;251;48.704;9.210;2023-05-10T05:14:05;13.10;91.80
530;DHT22;251;48.704;9.210;2023-05-10T05:16:32;13.40;92.70
530;DHT22;251;48.704;9.210;2023-05-10T05:18:59;13.30;91.60
530;DHT22;251;48.704;9.210;2023-05-10T05:21:27;13.20;90.30
530;DHT22;251;48.704;9.210;2023-05-10T05:23:54;13.40;88.60
530;DHT22;251;48.704;9.210;2023-05-10T05:26:21;13.30;83.20
530;DHT22;251;48.704;9.210;2023-05-10T05:28:49;13.20;71.60
530;DHT22;251;48.704;9.210;2023-05-10T05:31:19;13.30;76.00
530;DHT22;251;48.704;9.210;2023-05-10T05:33:46;13.20;77.00
530;DHT22;251;48.704;9.210;2023-05-10T05:36:12;13.40;78.20
530;DHT22;251;48.704;9.210;2023-05-10T05:38:39;13.40;80.70
530;DHT22;251;48.704;9.210;2023-05-10T05:41:06;13.70;79.00
530;DHT22;251;48.704;9.210;2023-05-10T05:43:33;13.70;78.50
530;DHT22;251;48.704;9.210;2023-05-10T05:46:01;13.80;76.70
530;DHT22;251;48.704;9.210;2023-05-10T05:48:29;13.70;72.70
530;DHT22;251;48.704;9.210;2023-05-10T05:50:56;13.80;77.90
530;DHT22;251;48.704;9.210;2023-05-10T05:53:23;14.10;77.20
530;DHT22;251;48.704;9.210;2023-05-10T05:55:53;13.70;70.40
530;DHT22;251;48.704;9.210;2023-05-10T05:58:20;13.80;69.90
530;DHT22;251;48.704;9.210;2023-05-10T06:00:47;13.90;65.10
530;DHT22;251;48.704;9.210;2023-05-10T06:03:16;14.00;65.50
530;DHT22;251;48.704;9.210;2023-05-10T06:05:43;13.90;63.90
530;DHT22;251;48.704;9.210;2023-05-10T06:08:09;13.90;64.50
530;DHT22;251;48.704;9.210;2023-05-10T06:10:36;14.60;66.30
530;DHT22;251;48.704;9.210;2023-05-10T06:13:03;14.50;57.00
530;DHT22;251;48.704;9.210;2023-05-10T06:15:30;14.60;61.30
530;DHT22;251;48.704;9.210;2023-05-10T06:17:57;14.50;59.00
530;DHT22;251;48.704;9.210;2023-05-10T06:20:25;14.50;57.40
530;DHT22;251;48.704;9.210;2023-05-10T06:22:52;14.60;60.90
530;DHT22;251;48.704;9.210;2023-05-10T06:25:19;14.50;58.90
530;DHT22;251;48.704;9.210;2023-05-10T06:27:46;14.60;56.70
530;DHT22;251;48.704;9.210;2023-05-10T06:30:13;14.60;53.80
530;DHT22;251;48.704;9.210;2023-05-10T06:32:40;14.60;53.90
530;DHT22;251;48.704;9.210;2023-05-10T06:35:07;14.70;52.20
530;DHT22;251;48.704;9.210;2023-05-10T06:37:36;14.90;52.70
530;DHT22;251;48.704;9.210;2023-05-10T06:40:03;14.80;51.20
530;DHT22;251;48.704;9.210;2023-05-10T06:42:30;14.60;48.30
530;DHT22;251;48.704;9.210;2023-05-10T06:44:56;15.00;49.40
530;DHT22;251;48.704;9.210;2023-05-10T06:47:24;14.90;48.70
530;DHT22;251;48.704;9.210;2023-05-10T06:49:50;14.70;51.10
530;DHT22;251;48.704;9.210;2023-05-10T06:52:17;14.90;51.40
530;DHT22;251;48.704;9.210;2023-05-10T06:54:45;15.00;51.70
530;DHT22;251;48.704;9.210;2023-05-10T06:57:12;15.00;52.40
530;DHT22;251;48.704;9.210;2023-05-10T06:59:39;14.70;49.00
530;DHT22;251;48.704;9.210;2023-05-10T07:02:06;14.70;49.70
530;DHT22;251;48.704;9.210;2023-05-10T07:04:33;14.60;49.50
530;DHT22;251;48.704;9.210;2023-05-10T07:06:59;14.70;52.50
530;DHT22;251;48.704;9.210;2023-05-10T07:09:26;14.70;54.20
530;DHT22;251;48.704;9.210;2023-05-10T07:11:54;14.80;56.80
530;DHT22;251;48.704;9.210;2023-05-10T07:14:22;14.90;54.30
530;DHT22;251;48.704;9.210;2023-05-10T07:16:49;14.70;52.40
530;DHT22;251;48.704;9.210;2023-05-10T07:19:16;15.00;53.00
530;DHT22;251;48.704;9.210;2023-05-10T07:21:43;15.00;51.30
530;DHT22;251;48.704;9.210;2023-05-10T07:24:09;15.00;44.20
530;DHT22;251;48.704;9.210;2023-05-10T07:26:36;15.70;44.30
530;DHT22;251;48.704;9.210;2023-05-10T07:29:04;15.40;40.80
530;DHT22;251;48.704;9.210;2023-05-10T07:31:31;15.60;40.50
530;DHT22;251;48.704;9.210;2023-05-10T07:33:58;15.60;40.60
530;DHT22;251;48.704;9.210;2023-05-10T07:36:25;16.00;39.20
530;DHT22;251;48.704;9.210;2023-05-10T07:38:52;16.00;38.10
530;DHT22;251;48.704;9.210;2023-05-10T07:41:18;15.90;38.10
530;DHT22;251;48.704;9.210;2023-05-10T07:43:46;16.30;38.00
530;DHT22;251;48.704;9.210;2023-05-10T07:46:14;16.00;34.60
530;DHT22;251;48.704;9.210;2023-05-10T07:48:41;15.90;34.50
530;DHT22;251;48.704;9.210;2023-05-10T07:51:07;16.30;36.20
530;DHT22;251;48.704;9.210;2023-05-10T07:53:35;16.00;34.00
530;DHT22;251;48.704;9.210;2023-05-10T07:56:21;16.30;32.30
530;DHT22;251;48.704;9.210;2023-05-10T07:58:48;16.00;34.50
530;DHT22;251;48.704;9.210;2023-05-10T08:01:17;16.10;35.50
530;DHT22;251;48.704;9.210;2023-05-10T08:03:43;16.40;35.40
530;DHT22;251;48.704;9.210;2023-05-10T08:06:10;16.30;34.30
530;DHT22;251;48.704;9.210;2023-05-10T08:08:37;16.40;34.60
530;DHT22;251;48.704;9.210;2023-05-10T08:11:04;16.50;31.80
530;DHT22;251;48.704;9.210;2023-05-10T08:13:31;16.40;31.30
530;DHT22;251;48.704;9.210;2023-05-10T08:15:58;16.20;29.00
530;DHT22;251;48.704;9.210;2023-05-10T08:18:26;16.30;29.50
530;DHT22;251;48.704;9.210;2023-05-10T08:20:53;16.30;29.70
530;DHT22;251;48.704;9.210;2023-05-10T08:23:20;16.60;29.90
530;DHT22;251;48.704;9.210;2023-05-10T08:25:47;16.30;26.60
530;DHT22;251;48.704;9.210;2023-05-10T08:28:14;16.60;27.20
530;DHT22;251;48.704;9.210;2023-05-10T08:30:40;16.50;28.20
530;DHT22;251;48.704;9.210;2023-05-10T08:33:07;16.50;27.60
530;DHT22;251;48.704;9.210;2023-05-10T08:35:35;16.90;26.90
530;DHT22;251;48.704;9.210;2023-05-10T08:38:02;16.70;25.90
530;DHT22;251;48.704;9.210;2023-05-10T08:40:29;16.70;26.20
530;DHT22;251;48.704;9.210;2023-05-10T08:42:59;16.80;25.60
530;DHT22;251;48.704;9.210;2023-05-10T08:45:32;16.60;25.40
530;DHT22;251;48.704;9.210;2023-05-10T08:47:59;16.90;27.30
530;DHT22;251;48.704;9.210;2023-05-10T08:50:28;16.50;26.20
530;DHT22;251;48.704;9.210;2023-05-10T08:52:59;16.40;24.40
530;DHT22;251;48.704;9.210;2023-05-10T08:55:26;16.30;26.30
530;DHT22;251;48.704;9.210;2023-05-10T08:57:53;16.30;26.80
530;DHT22;251;48.704;9.210;2023-05-10T09:00:22;16.50;26.10
530;DHT22;251;48.704;9.210;2023-05-10T09:02:49;16.50;25.90
530;DHT22;251;48.704;9.210;2023-05-10T09:05:16;16.40;25.90
530;DHT22;251;48.704;9.210;2023-05-10T09:07:43;16.50;26.40
530;DHT22;251;48.704;9.210;2023-05-10T09:10:12;16.80;26.90
530;DHT22;251;48.704;9.210;2023-05-10T09:12:41;16.90;24.80
530;DHT22;251;48.704;9.210;2023-05-10T09:15:09;17.00;25.20
530;DHT22;251;48.704;9.210;2023-05-10T09:17:37;17.00;22.90
530;DHT22;251;48.704;9.210;2023-05-10T09:20:06;17.10;22.90
530;DHT22;251;48.704;9.210;2023-05-10T09:22:33;17.10;22.30
530;DHT22;251;48.704;9.210;2023-05-10T09:25:04;17.10;22.60
530;DHT22;251;48.704;9.210;2023-05-10T09:27:33;17.50;21.20
530;DHT22;251;48.704;9.210;2023-05-10T09:29:59;17.60;22.10
530;DHT22;251;48.704;9.210;2023-05-10T09:32:36;17.80;20.50
530;DHT22;251;48.704;9.210;2023-05-10T09:35:09;17.90;19.80
530;DHT22;251;48.704;9.210;2023-05-10T09:37:36;17.80;20.30
530;DHT22;251;48.704;9.210;2023-05-10T09:40:07;17.40;22.20
530;DHT22;251;48.704;9.210;2023-05-10T09:42:35;17.10;22.60
530;DHT22;251;48.704;9.210;2023-05-10T09:45:03;17.10;23.50
530;DHT22;251;48.704;9.210;2023-05-10T09:47:32;17.00;22.80
530;DHT22;251;48.704;9.210;2023-05-10T09:50:00;17.00;22.90
530;DHT22;251;48.704;9.210;2023-05-10T09:52:29;16.90;22.70
530;DHT22;251;48.704;9.210;2023-05-10T09:54:56;17.00;22.40
530;DHT22;251;48.704;9.210;2023-05-10T09:57:24;17.40;21.10
530;DHT22;251;48.704;9.210;2023-05-10T09:59:52;17.30;20.00
530;DHT22;251;48.704;9.210;2023-05-10T10:02:20;17.60;20.50
530;DHT22;251;48.704;9.210;2023-05-10T10:04:49;18.20;20.50
530;DHT22;251;48.704;9.210;2023-05-10T10:07:22;18.20;18.80
530;DHT22;251;48.704;9.210;2023-05-10T10:09:50;18.30;16.00
530;DHT22;251;48.704;9.210;2023-05-10T10:12:17;18.60;16.80
530;DHT22;251;48.704;9.210;2023-05-10T10:14:46;18.60;16.50
530;DHT22;251;48.704;9.210;2023-05-10T10:17:14;18.90;16.20
530;DHT22;251;48.704;9.210;2023-05-10T10:19:41;19.00;15.60
530;DHT22;251;48.704;9.210;2023-05-10T10:22:08;19.40;14.80
530;DHT22;251;48.704;9.210;2023-05-10T10:24:37;19.60;14.30
530;DHT22;251;48.704;9.210;2023-05-10T10:27:12;19.80;14.20
530;DHT22;251;48.704;9.210;2023-05-10T10:29:49;20.00;14.80
530;DHT22;251;48.704;9.210;2023-05-10T10:32:26;20.20;13.90
530;DHT22;251;48.704;9.210;2023-05-10T10:34:55;20.40;11.10
530;DHT22;251;48.704;9.210;2023-05-10T10:37:22;20.40;9.90
530;DHT22;251;48.704;9.210;2023-05-10T10:39:49;20.30;9.80
530;DHT22;251;48.704;9.210;2023-05-10T10:42:43;20.20;10.10
530;DHT22;251;48.704;9.210;2023-05-10T10:45:13;20.00;10.60
530;DHT22;251;48.704;9.210;2023-05-10T10:47:41;19.90;10.90
530;DHT22;251;48.704;9.210;2023-05-10T10:50:09;19.60;10.30
530;DHT22;251;48.704;9.210;2023-05-10T10:52:39;19.50;10.30
530;DHT22;251;48.704;9.210;2023-05-10T10:55:07;19.30;10.80
530;DHT22;251;48.704;9.210;2023-05-10T10:57:44;19.40;12.80
530;DHT22;251;48.704;9.210;2023-05-10T11:00:31;19.70;10.20
530;DHT22;251;48.704;9.210;2023-05-10T11:03:03;19.90;9.70
530;DHT22;251;48.704;9.210;2023-05-10T11:05:36;20.20;9.80
530;DHT22;251;48.704;9.210;2023-05-10T11:11:02;19.30;8.80
530;DHT22;251;48.704;9.210;2023-05-10T11:13:30;18.70;10.70
530;DHT22;251;48.704;9.210;2023-05-10T11:15:58;18.00;10.40
530;DHT22;251;48.704;9.210;2023-05-10T11:18:28;17.60;10.10
530;DHT22;251;48.704;9.210;2023-05-10T11:20:57;17.40;11.20
530;DHT22;251;48.704;9.210;2023-05-10T11:23:29;17.00;11.50
530;DHT22;251;48.704;9.210;2023-05-10T11:25:57;17.40;13.40
530;DHT22;251;48.704;9.210;2023-05-10T11:28:24;17.20;12.60
530;DHT22;251;48.704;9.210;2023-05-10T11:30:52;16.80;12.20
530;DHT22;251;48.704;9.210;2023-05-10T11:33:19;16.80;12.60
530;DHT22;251;48.704;9.210;2023-05-10T11:35:48;16.70;15.00
530;DHT22;251;48.704;9.210;2023-05-10T11:38:14;16.30;17.30
530;DHT22;251;48.704;9.210;2023-05-10T11:40:41;16.20;20.00
530;DHT22;251;48.704;9.210;2023-05-10T11:43:09;15.90;22.10
530;DHT22;251;48.704;9.210;2023-05-10T11:45:37;16.00;23.00
530;DHT22;251;48.704;9.210;2023-05-10T11:48:04;15.90;23.60
530;DHT22;251;48.704;9.210;2023-05-10T11:50:31;15.60;25.10
530;DHT22;251;48.704;9.210;2023-05-10T11:52:59;15.30;24.80
530;DHT22;251;48.704;9.210;2023-05-10T11:55:26;15.60;25.90
530;DHT22;251;48.704;9.210;2023-05-10T11:58:00;15.30;26.30
530;DHT22;251;48.704;9.210;2023-05-10T12:00:27;15.60;25.50
530;DHT22;251;48.704;9.210;2023-05-10T12:02:54;15.70;24.80
530;DHT22;251;48.704;9.210;2023-05-10T12:05:21;15.80;24.30
530;DHT22;251;48.704;9.210;2023-05-10T12:07:48;16.00;25.60
530;DHT22;251;48.704;9.210;2023-05-10T12:10:25;16.10;24.30
530;DHT22;251;48.704;9.210;2023-05-10T12:12:52;15.70;22.10
530;DHT22;251;48.704;9.210;2023-05-10T12:15:20;16.40;23.20
530;DHT22;251;48.704;9.210;2023-05-10T12:17:48;16.30;20.30
530;DHT22;251;48.704;9.210;2023-05-10T12:20:16;16.50;19.20
530;DHT22;251;48.704;9.210;2023-05-10T12:22:45;16.90;18.00
530;DHT22;251;48.704;9.210;2023-05-10T12:25:12;17.30;17.50
530;DHT22;251;48.704;9.210;2023-05-10T12:27:41;17.30;19.10
530;DHT22;251;48.704;9.210;2023-05-10T12:30:19;17.50;15.80
530;DHT22;251;48.704;9.210;2023-05-10T12:32:46;17.40;16.80
530;DHT22;251;48.704;9.210;2023-05-10T12:35:13;17.60;16.20
530;DHT22;251;48.704;9.210;2023-05-10T12:37:42;17.80;16.90
530;DHT22;251;48.704;9.210;2023-05-10T12:40:10;17.80;16.90
530;DHT22;251;48.704;9.210;2023-05-10T12:42:38;17.60;18.80
530;DHT22;251;48.704;9.210;2023-05-10T12:45:08;17.90;15.60
530;DHT22;251;48.704;9.210;2023-05-10T12:47:35;17.70;17.30
530;DHT22;251;48.704;9.210;2023-05-10T12:50:02;17.60;14.20
530;DHT22;251;48.704;9.210;2023-05-10T12:52:30;17.00;17.30
530;DHT22;251;48.704;9.210;2023-05-10T12:54:58;17.00;17.60
530;DHT22;251;48.704;9.210;2023-05-10T12:57:25;17.00;18.00
530;DHT22;251;48.704;9.210;2023-05-10T12:59:51;16.60;18.40
530;DHT22;251;48.704;9.210;2023-05-10T13:02:19;16.70;18.40
530;DHT22;251;48.704;9.210;2023-05-10T13:04:48;16.90;19.40
530;DHT22;251;48.704;9.210;2023-05-10T13:07:15;16.90;18.10
530;DHT22;251;48.704;9.210;2023-05-10T13:09:42;17.00;18.40
530;DHT22;251;48.704;9.210;2023-05-10T13:12:09;17.30;15.20
530;DHT22;251;48.704;9.210;2023-05-10T13:14:36;17.40;12.70
530;DHT22;251;48.704;9.210;2023-05-10T13:17:03;17.40;13.70
530;DHT22;251;48.704;9.210;2023-05-10T13:19:31;17.60;15.50
530;DHT22;251;48.704;9.210;2023-05-10T13:21:58;18.00;14.30
530;DHT22;251;48.704;9.210;2023-05-10T13:24:24;18.20;15.40
530;DHT22;251;48.704;9.210;2023-05-10T13:26:51;18.40;12.60
530;DHT22;251;48.704;9.210;2023-05-10T13:29:18;18.60;10.00
530;DHT22;251;48.704;9.210;2023-05-10T13:31:46;18.70;12.80
530;DHT22;251;48.704;9.210;2023-05-10T13:34:13;18.90;9.50
530;DHT22;251;48.704;9.210;2023-05-10T13:36:41;19.00;9.00
530;DHT22;251;48.704;9.210;2023-05-10T13:39:08;19.10;7.20
530;DHT22;251;48.704;9.210;2023-05-10T13:41:34;19.30;9.30
530;DHT22;251;48.704;9.210;2023-05-10T13:44:02;19.30;6.40
530;DHT22;251;48.704;9.210;2023-05-10T13:46:29;19.40;9.90
530;DHT22;251;48.704;9.210;2023-05-10T13:48:56;19.50;6.60
530;DHT22;251;48.704;9.210;2023-05-10T13:51:23;19.40;6.20
530;DHT22;251;48.704;9.210;2023-05-10T13:53:51;19.50;5.80
530;DHT22;251;48.704;9.210;2023-05-10T13:56:18;19.40;6.80
530;DHT22;251;48.704;9.210;2023-05-10T13:58:44;19.30;6.40
530;DHT22;251;48.704;9.210;2023-05-10T14:01:11;19.10;7.70
530;DHT22;251;48.704;9.210;2023-05-10T14:03:38;19.10;9.10
530;DHT22;251;48.704;9.210;2023-05-10T14:06:05;19.10;8.80
530;DHT22;251;48.704;9.210;2023-05-10T14:08:32;19.20;11.50
530;DHT22;251;48.704;9.210;2023-05-10T14:11:01;19.40;11.20
530;DHT22;251;48.704;9.210;2023-05-10T14:13:27;19.50;9.30
530;DHT22;251;48.704;9.210;2023-05-10T14:15:54;19.40;8.10
530;DHT22;251;48.704;9.210;2023-05-10T14:18:21;19.30;8.60
530;DHT22;251;48.704;9.210;2023-05-10T14:20:49;19.20;8.70
530;DHT22;251;48.704;9.210;2023-05-10T14:23:15;19.10;8.00
530;DHT22;251;48.704;9.210;2023-05-10T14:25:42;19.00;7.00
530;DHT22;251;48.704;9.210;2023-05-10T14:28:10;18.90;7.10
530;DHT22;251;48.704;9.210;2023-05-10T14:30:37;18.90;10.10
530;DHT22;251;48.704;9.210;2023-05-10T14:33:04;18.80;9.30
530;DHT22;251;48.704;9.210;2023-05-10T14:35:31;18.80;9.60
530;DHT22;251;48.704;9.210;2023-05-10T14:37:58;18.80;9.30
530;DHT22;251;48.704;9.210;2023-05-10T14:40:25;18.90;11.80
530;DHT22;251;48.704;9.210;2023-05-10T14:42:52;19.00;9.00
530;DHT22;251;48.704;9.210;2023-05-10T14:45:20;19.10;7.60
530;DHT22;251;48.704;9.210;2023-05-10T14:47:48;19.30;8.40
530;DHT22;251;48.704;9.210;2023-05-10T14:50:15;19.30;7.20
530;DHT22;251;48.704;9.210;2023-05-10T14:52:42;19.30;5.40
530;DHT22;251;48.704;9.210;2023-05-10T14:55:09;19.20;5.60
530;DHT22;251;48.704;9.210;2023-05-10T14:57:36;19.10;4.80
530;DHT22;251;48.704;9.210;2023-05-10T15:00:04;19.10;5.90
530;DHT22;251;48.704;9.210;2023-05-10T15:02:32;19.00;4.80
530;DHT22;251;48.704;9.210;2023-05-10T15:05:00;18.80;5.30
530;DHT22;251;48.704;9.210;2023-05-10T15:07:26;18.50;5.10
530;DHT22;251;48.704;9.210;2023-05-10T15:09:53;18.30;6.00
530;DHT22;251;48.704;9.210;2023-05-10T15:12:20;18.20;8.40
530;DHT22;251;48.704;9.210;2023-05-10T15:14:47;18.10;8.00
530;DHT22;251;48.704;9.210;2023-05-10T15:17:14;18.30;8.00
530;DHT22;251;48.704;9.210;2023-05-10T15:19:43;18.40;8.40
530;DHT22;251;48.704;9.210;2023-05-10T15:22:09;18.00;9.60
530;DHT22;251;48.704;9.210;2023-05-10T15:24:36;17.80;8.80
530;DHT22;251;48.704;9.210;2023-05-10T15:27:03;17.70;8.10
530;DHT22;251;48.704;9.210;2023-05-10T15:29:30;17.90;8.30
530;DHT22;251;48.704;9.210;2023-05-10T15:31:57;18.00;8.80
530;DHT22;251;48.704;9.210;2023-05-10T15:34:23;18.30;8.50
530;DHT22;251;48.704;9.210;2023-05-10T15:36:51;18.50;8.60
530;DHT22;251;48.704;9.210;2023-05-10T15:39:18;18.70;8.80
530;DHT22;251;48.704;9.210;2023-05-10T15:41:45;18.90;8.90
530;DHT22;251;48.704;9.210;2023-05-10T15:44:12;19.00;6.50
530;DHT22;251;48.704;9.210;2023-05-10T15:46:39;19.00;6.40
530;DHT22;251;48.704;9.210;2023-05-10T15:49:06;19.00;7.70
530;DHT22;251;48.704;9.210;2023-05-10T15:51:33;19.10;7.10
530;DHT22;251;48.704;9.210;2023-05-10T15:54:01;19.10;6.30
530;DHT22;251;48.704;9.210;2023-05-10T15:56:28;19.10;9.10
530;DHT22;251;48.704;9.210;2023-05-10T15:58:55;19.10;10.10
530;DHT22;251;48.704;9.210;2023-05-10T16:01:21;19.10;7.90
530;DHT22;251;48.704;9.210;2023-05-10T16:03:48;19.00;6.40
530;DHT22;251;48.704;9.210;2023-05-10T16:06:15;19.00;6.70
530;DHT22;251;48.704;9.210;2023-05-10T16:08:42;18.70;6.00
530;DHT22;251;48.704;9.210;2023-05-10T16:11:10;18.60;9.30
530;DHT22;251;48.704;9.210;2023-05-10T16:13:37;18.50;8.20
530;DHT22;251;48.704;9.210;2023-05-10T16:16:04;18.30;9.80
530;DHT22;251;48.704;9.210;2023-05-10T16:18:33;18.30;11.10
530;DHT22;251;48.704;9.210;2023-05-10T16:21:00;18.30;8.20
530;DHT22;251;48.704;9.210;2023-05-10T16:23:27;18.00;9.40
530;DHT22;251;48.704;9.210;2023-05-10T16:25:54;17.90;9.60
530;DHT22;251;48.704;9.210;2023-05-10T16:28:22;17.90;9.30
530;DHT22;251;48.704;9.210;2023-05-10T16:30:49;17.90;10.50
530;DHT22;251;48.704;9.210;2023-05-10T16:33:16;17.90;10.20
530;DHT22;251;48.704;9.210;2023-05-10T16:35:43;17.90;10.40
530;DHT22;251;48.704;9.210;2023-05-10T16:38:10;17.90;9.40
530;DHT22;251;48.704;9.210;2023-05-10T16:40:37;17.90;9.50
530;DHT22;251;48.704;9.210;2023-05-10T16:43:04;17.70;11.60
530;DHT22;251;48.704;9.210;2023-05-10T16:45:32;17.70;9.50